Time;durP1;ratioP1;P1;durP2;ratioP2;P2;SDS_P1;SDS_P2;PMS_P1;PMS_P2;Temp;Humidity;BMP_temperature;BMP_pressure;BME280_temperature;BME280_humidity;BME280_pressure;Samples;Min_cycle;Max_cycle;Signal;HPM_P1;HPM_P2
2022/06/18 00:01:35;;;;;;;8.43;3.33;;;;;;;;;;6200801;23;20024;-66
2022/06/18 00:04:02;;;;;;;7.05;3.30;;;;;;;;;;6190028;23;20103;-66
2022/06/18 00:06:31;;;;;;;8.35;3.28;;;;;;;;;;6193692;23;20481;-66
2022/06/18 00:08:57;;;;;;;7.30;4.07;;;;;;;;;;6194226;22;20686;-66
2022/06/18 00:14:09;;;;;;;7.72;4.15;;;;;;;;;;6203255;23;20030;-66
2022/06/18 00:16:36;;;;;;;6.25;4.03;;;;;;;;;;6193588;22;20461;-67
2022/06/18 00:19:02;;;;;;;6.55;3.92;;;;;;;;;;6200414;23;20064;-67
2022/06/18 00:21:29;;;;;;;9.77;3.70;;;;;;;;;;6191536;23;20067;-67
2022/06/18 00:23:55;;;;;;;4.68;3.17;;;;;;;;;;6202507;23;20409;-67
2022/06/18 00:26:22;;;;;;;5.43;3.15;;;;;;;;;;6192476;23;20481;-66
2022/06/18 00:28:49;;;;;;;4.53;3.00;;;;;;;;;;6195486;23;20115;-66
2022/06/18 00:31:15;;;;;;;9.35;3.30;;;;;;;;;;6195585;23;20031;-66
2022/06/18 00:33:41;;;;;;;6.28;3.30;;;;;;;;;;6191689;23;20033;-67
2022/06/18 00:36:15;;;;;;;4.57;2.78;;;;;;;;;;6201240;23;20066;-66
2022/06/18 00:38:43;;;;;;;7.32;3.35;;;;;;;;;;6191789;23;20020;-66
2022/06/18 00:41:13;;;;;;;6.68;3.28;;;;;;;;;;6201165;23;20031;-66
2022/06/18 00:43:42;;;;;;;6.78;3.17;;;;;;;;;;6188066;22;20025;-66
2022/06/18 00:46:11;;;;;;;4.75;3.40;;;;;;;;;;6194701;23;20021;-65
2022/06/18 00:49:07;;;;;;;6.13;3.17;;;;;;;;;;6201183;23;20028;-67
2022/06/18 00:51:45;;;;;;;7.03;3.33;;;;;;;;;;6112336;23;20026;-67
2022/06/18 00:54:18;;;;;;;6.22;3.42;;;;;;;;;;6202677;23;20460;-67
2022/06/18 00:56:56;;;;;;;4.35;3.22;;;;;;;;;;6186914;23;20362;-67
2022/06/18 00:59:41;;;;;;;5.00;3.20;;;;;;;;;;6195541;23;20020;-67
2022/06/18 01:02:10;;;;;;;5.65;3.45;;;;;;;;;;6193622;22;20298;-65
2022/06/18 01:04:37;;;;;;;7.80;3.55;;;;;;;;;;6200948;23;20071;-67
2022/06/18 01:07:04;;;;;;;6.68;3.17;;;;;;;;;;6191656;23;20071;-67
2022/06/18 01:09:31;;;;;;;6.28;3.60;;;;;;;;;;6200742;23;20028;-67
2022/06/18 01:11:57;;;;;;;6.97;3.38;;;;;;;;;;6195517;23;20104;-67
2022/06/18 01:14:24;;;;;;;5.55;3.40;;;;;;;;;;6185027;23;20100;-67
2022/06/18 01:16:51;;;;;;;6.32;3.85;;;;;;;;;;6202348;23;20100;-67
2022/06/18 01:19:31;;;;;;;5.53;4.00;;;;;;;;;;6135967;23;1329130;-67
2022/06/18 01:22:16;;;;;;;9.00;4.43;;;;;;;;;;6203920;23;20241;-67
2022/06/18 01:24:44;;;;;;;8.05;4.38;;;;;;;;;;6191686;23;20020;-67
2022/06/18 01:27:10;;;;;;;;;;;;;;;;;;6197176;23;20024;-66
2022/06/18 01:29:37;;;;;;;5.38;3.20;;;;;;;;;;6204047;23;19943;-67
2022/06/18 01:32:03;;;;;;;5.30;3.50;;;;;;;;;;6194255;23;20051;-67
2022/06/18 01:34:30;;;;;;;7.90;3.85;;;;;;;;;;6203645;23;20393;-66
2022/06/18 01:36:57;;;;;;;5.22;3.60;;;;;;;;;;6196180;23;20559;-67
2022/06/18 01:39:25;;;;;;;8.40;3.60;;;;;;;;;;6196881;23;20103;-67
2022/06/18 01:41:55;;;;;;;6.75;3.58;;;;;;;;;;6190789;23;20044;-67
2022/06/18 01:44:36;;;;;;;6.95;3.60;;;;;;;;;;6202898;23;20108;-67
2022/06/18 01:47:22;;;;;;;5.38;3.70;;;;;;;;;;6195500;23;20104;-68
2022/06/18 01:50:06;;;;;;;6.10;3.83;;;;;;;;;;6204674;23;20028;-67
2022/06/18 01:52:35;;;;;;;7.03;3.88;;;;;;;;;;6197951;23;20063;-66
2022/06/18 01:55:06;;;;;;;8.05;4.13;;;;;;;;;;6170475;23;20349;-66
2022/06/18 01:57:34;;;;;;;5.15;3.67;;;;;;;;;;6203924;23;20700;-66
2022/06/18 02:00:12;;;;;;;7.35;3.90;;;;;;;;;;6195946;23;20119;-66
2022/06/18 02:02:39;;;;;;;10.77;3.83;;;;;;;;;;6202729;23;20056;-66
2022/06/18 02:05:06;;;;;;;8.93;4.03;;;;;;;;;;6192810;23;20028;-67
2022/06/18 02:07:32;;;;;;;8.40;4.28;;;;;;;;;;6197127;23;20031;-66
2022/06/18 02:10:01;;;;;;;6.65;4.00;;;;;;;;;;6187366;22;20025;-66
2022/06/18 02:12:30;;;;;;;6.78;4.13;;;;;;;;;;6203581;23;20500;-68
2022/06/18 02:15:02;;;;;;;6.30;4.32;;;;;;;;;;6204268;23;20444;-66
2022/06/18 02:17:30;;;;;;;7.53;4.28;;;;;;;;;;6195949;23;20028;-67
2022/06/18 02:20:13;;;;;;;5.93;4.32;;;;;;;;;;6200660;23;20107;-66
2022/06/18 02:22:41;;;;;;;7.78;4.40;;;;;;;;;;6189549;23;20020;-66
2022/06/18 02:25:08;;;;;;;8.75;4.95;;;;;;;;;;6201440;23;20424;-66
2022/06/18 02:27:34;;;;;;;7.28;4.68;;;;;;;;;;6165873;23;20052;-67
2022/06/18 02:30:01;;;;;;;8.93;5.00;;;;;;;;;;6202337;23;20115;-66
2022/06/18 02:32:46;;;;;;;7.53;4.70;;;;;;;;;;6202014;23;20024;-68
2022/06/18 02:35:13;;;;;;;9.07;4.63;;;;;;;;;;6186838;23;20426;-66
2022/06/18 02:37:40;;;;;;;8.30;4.87;;;;;;;;;;6195786;23;20028;-67
2022/06/18 02:40:14;;;;;;;6.70;4.65;;;;;;;;;;6192410;23;20337;-66
2022/06/18 02:42:40;;;;;;;7.18;4.95;;;;;;;;;;6202504;23;20025;-68
2022/06/18 02:45:07;;;;;;;11.07;5.93;;;;;;;;;;6194983;23;20055;-67
2022/06/18 02:47:34;;;;;;;10.82;5.10;;;;;;;;;;6203914;23;20028;-67
2022/06/18 02:50:03;;;;;;;7.32;4.88;;;;;;;;;;6171180;23;20111;-67
2022/06/18 02:52:32;;;;;;;8.10;5.70;;;;;;;;;;6195352;22;20103;-67
2022/06/18 02:55:00;;;;;;;8.10;5.63;;;;;;;;;;6202439;23;20112;-67
2022/06/18 02:57:27;;;;;;;;;;;;;;;;;;6193384;22;20112;-66
2022/06/18 02:59:53;;;;;;;9.13;5.70;;;;;;;;;;6204616;23;20002;-66
2022/06/18 03:02:20;;;;;;;7.85;5.55;;;;;;;;;;6187131;23;20052;-67
2022/06/18 03:04:46;;;;;;;8.18;5.80;;;;;;;;;;6200523;23;20034;-67
2022/06/18 03:07:12;;;;;;;8.50;5.60;;;;;;;;;;6202565;23;20758;-67
2022/06/18 03:12:06;;;;;;;5.97;4.80;;;;;;;;;;6192925;23;20036;-67
2022/06/18 03:12:26;;;;;;;7.18;5.18;;;;;;;;;;6203694;23;20055;-67
2022/06/18 03:14:52;;;;;;;8.20;5.70;;;;;;;;;;6191105;23;20028;-67
2022/06/18 03:17:19;;;;;;;8.27;5.75;;;;;;;;;;6198180;23;20028;-66
2022/06/18 03:19:49;;;;;;;8.70;6.15;;;;;;;;;;6196556;22;20025;-66
2022/06/18 03:22:18;;;;;;;9.32;5.70;;;;;;;;;;6203477;23;20025;-66
2022/06/18 03:24:44;;;;;;;8.23;5.55;;;;;;;;;;6195187;23;20103;-66
2022/06/18 03:27:12;;;;;;;11.90;5.97;;;;;;;;;;6203706;23;20103;-66
2022/06/18 03:29:39;;;;;;;10.00;5.90;;;;;;;;;;6198125;23;20237;-66
2022/06/18 03:32:05;;;;;;;10.88;6.53;;;;;;;;;;6190413;23;20048;-67
2022/06/18 03:34:32;;;;;;;11.52;5.82;;;;;;;;;;6204621;23;20103;-67
2022/06/18 03:36:58;;;;;;;11.32;5.95;;;;;;;;;;6198142;23;20127;-66
2022/06/18 03:39:25;;;;;;;12.02;6.50;;;;;;;;;;6205842;23;20095;-66
2022/06/18 03:41:51;;;;;;;8.88;6.20;;;;;;;;;;6197855;22;20020;-66
2022/06/18 03:44:18;;;;;;;9.40;6.30;;;;;;;;;;6195035;23;20497;-66
2022/06/18 03:46:44;;;;;;;8.23;6.22;;;;;;;;;;6204581;23;20027;-66
2022/06/18 03:49:23;;;;;;;10.63;6.45;;;;;;;;;;6197753;23;20059;-66
2022/06/18 03:51:49;;;;;;;10.52;6.35;;;;;;;;;;6206475;23;20031;-67
2022/06/18 03:54:15;;;;;;;11.93;6.82;;;;;;;;;;6196237;23;20100;-66
2022/06/18 03:56:41;;;;;;;10.35;6.50;;;;;;;;;;6200493;23;20020;-66
2022/06/18 03:59:09;;;;;;;14.27;6.70;;;;;;;;;;6194279;23;20021;-67
2022/06/18 04:01:40;;;;;;;10.27;6.75;;;;;;;;;;6202630;23;20407;-66
2022/06/18 04:04:07;;;;;;;9.70;6.80;;;;;;;;;;6205708;23;20021;-67
2022/06/18 04:06:34;;;;;;;12.00;7.57;;;;;;;;;;6197718;23;20024;-67
2022/06/18 04:09:00;;;;;;;10.65;6.88;;;;;;;;;;6204268;23;20107;-67
2022/06/18 04:11:27;;;;;;;10.25;6.95;;;;;;;;;;6163095;23;20424;-66
2022/06/18 04:13:54;;;;;;;9.00;6.57;;;;;;;;;;6199270;23;20039;-67
2022/06/18 04:16:20;;;;;;;9.23;6.77;;;;;;;;;;6203499;23;20123;-67
2022/06/18 04:18:47;;;;;;;8.05;6.32;;;;;;;;;;6201443;23;20676;-67
2022/06/18 04:21:14;;;;;;;11.07;7.47;;;;;;;;;;6205898;23;20025;-67
2022/06/18 04:23:41;;;;;;;8.93;5.93;;;;;;;;;;6198111;22;20103;-67
2022/06/18 04:26:07;;;;;;;14.40;7.40;;;;;;;;;;6169048;23;20107;-67
2022/06/18 04:28:34;;;;;;;12.52;7.13;;;;;;;;;;6192521;23;20083;-67
2022/06/18 04:31:00;;;;;;;11.05;7.38;;;;;;;;;;6204456;23;20107;-67
2022/06/18 04:33:27;;;;;;;11.25;7.78;;;;;;;;;;6204358;23;20024;-67
2022/06/18 04:35:54;;;;;;;11.57;6.47;;;;;;;;;;6194301;23;20108;-67
2022/06/18 04:38:21;;;;;;;11.05;7.47;;;;;;;;;;6199507;23;20080;-67
2022/06/18 04:40:47;;;;;;;12.23;7.43;;;;;;;;;;6191843;23;20462;-67
2022/06/18 04:43:23;;;;;;;9.88;7.30;;;;;;;;;;6209391;23;20028;-66
2022/06/18 04:45:49;;;;;;;14.63;8.35;;;;;;;;;;6204469;23;20039;-67
2022/06/18 04:48:15;;;;;;;14.60;8.45;;;;;;;;;;6211043;23;20695;-67
2022/06/18 04:50:42;;;;;;;11.82;8.57;;;;;;;;;;6211646;23;20059;-67
2022/06/18 04:53:09;;;;;;;11.13;8.02;;;;;;;;;;6198682;23;20064;-67
2022/06/18 04:55:36;;;;;;;12.40;8.70;;;;;;;;;;6207401;23;20024;-67
2022/06/18 04:58:03;;;;;;;14.07;7.05;;;;;;;;;;6204595;23;20031;-66
2022/06/18 05:00:29;;;;;;;13.65;8.63;;;;;;;;;;6210805;23;20103;-66
2022/06/18 05:02:55;;;;;;;14.93;8.68;;;;;;;;;;6203891;23;20109;-66
2022/06/18 05:05:23;;;;;;;15.48;8.15;;;;;;;;;;6208450;23;20446;-66
2022/06/18 05:07:50;;;;;;;;;;;;;;;;;;6203965;23;20095;-67
2022/06/18 05:10:16;;;;;;;10.88;9.35;;;;;;;;;;6202024;23;19998;-65
2022/06/18 05:12:42;;;;;;;15.05;9.02;;;;;;;;;;6211605;23;20517;-65
2022/06/18 05:15:11;;;;;;;11.82;9.63;;;;;;;;;;6204446;23;20099;-66
2022/06/18 05:17:39;;;;;;;10.65;9.05;;;;;;;;;;6211604;23;20092;-67
2022/06/18 05:20:10;;;;;;;14.45;9.52;;;;;;;;;;6196680;23;20027;-66
2022/06/18 05:22:36;;;;;;;13.63;8.63;;;;;;;;;;6208527;23;20529;-66
2022/06/18 05:25:02;;;;;;;18.30;10.48;;;;;;;;;;6212071;23;20017;-66
2022/06/18 05:27:33;;;;;;;13.23;10.52;;;;;;;;;;6204185;23;20024;-66
2022/06/18 05:29:59;;;;;;;14.88;10.95;;;;;;;;;;6210725;23;20035;-67
2022/06/18 05:32:26;;;;;;;13.88;9.50;;;;;;;;;;6202126;23;20507;-66
2022/06/18 05:34:52;;;;;;;14.65;10.90;;;;;;;;;;6206696;23;20059;-66
2022/06/18 05:37:20;;;;;;;15.38;10.18;;;;;;;;;;6203521;23;20697;-66
2022/06/18 05:39:47;;;;;;;12.25;8.60;;;;;;;;;;6210896;23;20046;-66
2022/06/18 05:42:14;;;;;;;14.57;10.63;;;;;;;;;;6203563;23;20017;-66
2022/06/18 05:44:41;;;;;;;17.23;10.90;;;;;;;;;;6209029;23;20103;-66
2022/06/18 05:47:40;;;;;;;18.13;10.95;;;;;;;;;;6201466;23;20108;-66
2022/06/18 05:50:07;;;;;;;15.35;11.10;;;;;;;;;;6136539;23;20122;-66
2022/06/18 05:52:33;;;;;;;14.88;11.07;;;;;;;;;;6210932;23;20456;-67
2022/06/18 05:55:01;;;;;;;16.90;12.30;;;;;;;;;;6203856;23;20549;-66
2022/06/18 05:57:27;;;;;;;16.48;11.02;;;;;;;;;;6210022;23;20020;-66
2022/06/18 05:59:54;;;;;;;18.45;11.05;;;;;;;;;;6197573;23;20095;-65
2022/06/18 06:02:21;;;;;;;14.23;9.85;;;;;;;;;;6204516;23;20099;-66
2022/06/18 06:04:47;;;;;;;15.55;9.82;;;;;;;;;;6210971;23;20103;-66
2022/06/18 06:07:15;;;;;;;16.75;10.20;;;;;;;;;;6203696;23;20354;-66
2022/06/18 06:12:27;;;;;;;14.77;9.35;;;;;;;;;;6203496;23;20024;-66
2022/06/18 06:14:55;;;;;;;15.02;9.82;;;;;;;;;;6203033;23;20103;-66
2022/06/18 06:17:22;;;;;;;;;;;;;;;;;;6201359;23;20028;-65
2022/06/18 06:19:48;;;;;;;16.17;9.88;;;;;;;;;;6210820;23;19920;-65
2022/06/18 06:22:15;;;;;;;15.23;10.90;;;;;;;;;;6210295;23;20103;-66
2022/06/18 06:24:41;;;;;;;17.38;9.95;;;;;;;;;;6202751;22;20062;-64
2022/06/18 06:27:11;;;;;;;16.23;10.18;;;;;;;;;;6206310;23;20861;-65
2022/06/18 06:29:37;;;;;;;16.88;10.07;;;;;;;;;;6196471;23;20029;-66
2022/06/18 06:32:04;;;;;;;18.73;10.00;;;;;;;;;;6209670;23;20103;-66
2022/06/18 06:34:30;;;;;;;17.35;10.73;;;;;;;;;;6203151;23;20099;-66
2022/06/18 06:36:56;;;;;;;16.02;9.25;;;;;;;;;;6210348;23;20063;-66
2022/06/18 06:39:23;;;;;;;18.80;9.15;;;;;;;;;;6210497;23;20023;-66
2022/06/18 06:41:49;;;;;;;15.15;10.05;;;;;;;;;;6195647;22;20044;-66
2022/06/18 06:44:15;;;;;;;13.63;9.88;;;;;;;;;;6204682;23;20020;-66
2022/06/18 06:46:42;;;;;;;17.08;11.10;;;;;;;;;;6200540;23;20104;-67
2022/06/18 06:49:09;;;;;;;19.63;10.13;;;;;;;;;;6209399;23;20034;-66
2022/06/18 06:51:36;;;;;;;20.77;10.45;;;;;;;;;;6201847;23;20397;-66
2022/06/18 06:54:05;;;;;;;23.17;11.77;;;;;;;;;;6210983;23;20075;-66
2022/06/18 06:59:16;;;;;;;18.55;10.18;;;;;;;;;;6206596;23;20277;-66
2022/06/18 07:01:43;;;;;;;17.30;10.50;;;;;;;;;;6210278;23;20071;-66
2022/06/18 07:04:11;;;;;;;15.68;10.48;;;;;;;;;;6201647;23;20021;-66
2022/06/18 07:06:38;;;;;;;16.70;10.50;;;;;;;;;;6210850;23;20028;-67
2022/06/18 07:09:04;;;;;;;15.38;10.00;;;;;;;;;;6199380;23;20095;-67
2022/06/18 07:11:33;;;;;;;15.80;11.00;;;;;;;;;;6202993;23;20108;-66
2022/06/18 07:13:59;;;;;;;17.95;10.77;;;;;;;;;;6200031;23;20103;-66
2022/06/18 07:16:26;;;;;;;18.85;11.18;;;;;;;;;;6206955;23;21173;-66
2022/06/18 07:18:53;;;;;;;23.80;12.00;;;;;;;;;;6208900;23;20025;-66
2022/06/18 07:21:21;;;;;;;17.60;9.65;;;;;;;;;;6174731;23;20477;-66
2022/06/18 07:23:48;;;;;;;17.83;11.48;;;;;;;;;;6203801;23;20123;-66
2022/06/18 07:26:16;;;;;;;19.73;12.30;;;;;;;;;;6194844;23;20100;-65
2022/06/18 07:28:43;;;;;;;17.30;11.18;;;;;;;;;;6208465;23;20025;-66
2022/06/18 07:31:23;;;;;;;14.93;12.00;;;;;;;;;;6199397;22;20484;-64
2022/06/18 07:33:55;;;;;;;14.30;11.02;;;;;;;;;;6209475;23;20050;-66
2022/06/18 07:36:21;;;;;;;17.70;11.48;;;;;;;;;;6208520;23;20046;-66
2022/06/18 07:38:48;;;;;;;17.10;11.70;;;;;;;;;;6193629;23;20031;-66
2022/06/18 07:41:16;;;;;;;18.85;11.65;;;;;;;;;;6201379;23;20470;-65
2022/06/18 07:43:45;;;;;;;16.75;11.30;;;;;;;;;;6201058;23;20127;-65
2022/06/18 07:46:12;;;;;;;18.30;11.27;;;;;;;;;;6207040;23;20031;-65
2022/06/18 07:48:43;;;;;;;17.77;10.75;;;;;;;;;;6198913;23;20021;-65
2022/06/18 07:51:10;;;;;;;15.32;9.50;;;;;;;;;;6201624;23;20538;-66
2022/06/18 07:53:37;;;;;;;15.27;9.45;;;;;;;;;;6199340;23;20100;-65
2022/06/18 07:56:03;;;;;;;14.73;10.15;;;;;;;;;;6198916;23;20020;-66
2022/06/18 07:58:30;;;;;;;11.27;8.45;;;;;;;;;;6179560;23;20092;-67
2022/06/18 08:00:57;;;;;;;20.13;9.82;;;;;;;;;;6199365;23;20065;-67
2022/06/18 08:03:23;;;;;;;16.63;9.27;;;;;;;;;;6206923;23;20423;-66
2022/06/18 08:05:51;;;;;;;20.65;11.10;;;;;;;;;;6193238;22;20496;-66
2022/06/18 08:08:17;;;;;;;24.70;11.05;;;;;;;;;;6201980;23;20064;-66
2022/06/18 08:11:00;;;;;;;18.05;10.45;;;;;;;;;;6208530;23;20031;-66
2022/06/18 08:13:27;;;;;;;15.05;9.63;;;;;;;;;;6197991;23;20031;-66
2022/06/18 08:15:53;;;;;;;17.75;11.38;;;;;;;;;;6209228;23;20399;-66
2022/06/18 08:18:20;;;;;;;20.70;9.95;;;;;;;;;;6200303;23;20613;-65
2022/06/18 08:21:05;;;;;;;19.52;9.95;;;;;;;;;;6198417;23;20035;-65
2022/06/18 08:23:31;;;;;;;17.95;9.68;;;;;;;;;;6200365;22;20026;-66
2022/06/18 08:25:58;;;;;;;14.95;9.20;;;;;;;;;;6208889;23;20058;-66
2022/06/18 08:28:24;;;;;;;14.65;8.23;;;;;;;;;;6208406;23;20104;-66
2022/06/18 08:30:51;;;;;;;18.38;9.63;;;;;;;;;;6171020;23;20351;-66
2022/06/18 08:33:18;;;;;;;16.95;9.23;;;;;;;;;;6203353;23;20052;-65
2022/06/18 08:35:44;;;;;;;16.80;10.40;;;;;;;;;;6195155;23;20353;-66
2022/06/18 08:38:12;;;;;;;20.25;10.25;;;;;;;;;;6205719;23;20127;-65
2022/06/18 08:40:57;;;;;;;12.05;8.70;;;;;;;;;;6200037;22;20024;-66
2022/06/18 08:43:34;;;;;;;18.08;9.82;;;;;;;;;;6208454;23;20021;-66
2022/06/18 08:46:16;;;;;;;18.65;9.80;;;;;;;;;;6208367;23;20383;-65
2022/06/18 08:48:52;;;;;;;17.25;9.07;;;;;;;;;;6198667;23;20021;-66
2022/06/18 08:51:26;;;;;;;17.55;8.70;;;;;;;;;;6205585;23;20107;-66
2022/06/18 08:54:01;;;;;;;18.33;9.25;;;;;;;;;;6200447;23;20059;-66
2022/06/18 08:56:35;;;;;;;18.42;8.07;;;;;;;;;;6207819;23;20048;-67
2022/06/18 08:59:16;;;;;;;20.42;8.68;;;;;;;;;;6200538;23;20076;-67
2022/06/18 09:01:45;;;;;;;14.65;7.60;;;;;;;;;;6202409;23;20059;-67
2022/06/18 09:04:19;;;;;;;14.98;6.93;;;;;;;;;;6195561;22;20797;-67
2022/06/18 09:06:55;;;;;;;17.67;7.15;;;;;;;;;;6208021;23;20021;-66
2022/06/18 09:09:37;;;;;;;13.75;6.47;;;;;;;;;;6200057;23;20067;-65
2022/06/18 09:12:15;;;;;;;13.68;6.38;;;;;;;;;;6207882;23;20031;-66
2022/06/18 09:14:42;;;;;;;15.98;6.20;;;;;;;;;;6202599;23;20070;-66
2022/06/18 09:17:18;;;;;;;14.05;5.93;;;;;;;;;;6170062;23;20028;-68
2022/06/18 09:19:46;;;;;;;11.35;5.53;;;;;;;;;;6207059;23;20020;-67
2022/06/18 09:22:17;;;;;;;17.00;5.97;;;;;;;;;;6199793;23;20572;-66
2022/06/18 09:24:46;;;;;;;14.85;6.43;;;;;;;;;;6206517;23;20020;-66
2022/06/18 09:27:17;;;;;;;17.02;7.18;;;;;;;;;;6199649;23;20369;-67
2022/06/18 09:29:46;;;;;;;16.67;7.20;;;;;;;;;;6200767;23;20026;-67
2022/06/18 09:32:31;;;;;;;13.15;6.88;;;;;;;;;;6196078;23;20343;-66
2022/06/18 09:34:59;;;;;;;14.35;6.88;;;;;;;;;;6179107;23;20108;-65
2022/06/18 09:37:30;;;;;;;16.95;6.75;;;;;;;;;;6204885;23;20221;-65
2022/06/18 09:39:58;;;;;;;14.30;6.63;;;;;;;;;;6197347;23;20099;-66
2022/06/18 09:42:24;;;;;;;;;;;;;;;;;;6200353;23;20127;-65
2022/06/18 09:44:58;;;;;;;12.98;6.63;;;;;;;;;;6192763;23;19926;-66
2022/06/18 09:47:28;;;;;;;16.75;6.70;;;;;;;;;;6206777;23;20025;-67
2022/06/18 09:49:54;;;;;;;16.35;6.78;;;;;;;;;;6202186;23;20071;-67
2022/06/18 09:52:21;;;;;;;17.85;7.13;;;;;;;;;;6207697;23;20817;-66
2022/06/18 09:54:50;;;;;;;13.18;6.18;;;;;;;;;;6208059;23;20028;-65
2022/06/18 09:57:18;;;;;;;14.23;6.70;;;;;;;;;;6194628;23;20024;-66
2022/06/18 09:59:48;;;;;;;12.02;5.65;;;;;;;;;;6201829;23;20035;-66
2022/06/18 10:02:17;;;;;;;16.45;6.40;;;;;;;;;;6198865;23;20031;-66
2022/06/18 10:07:31;;;;;;;14.98;6.57;;;;;;;;;;6200214;23;20107;-66
2022/06/18 10:10:00;;;;;;;13.33;5.60;;;;;;;;;;6204857;23;20056;-65
2022/06/18 10:12:30;;;;;;;14.50;6.07;;;;;;;;;;6189672;23;20123;-67
2022/06/18 10:15:02;;;;;;;14.00;6.05;;;;;;;;;;6206034;23;20021;-66
2022/06/18 10:17:42;;;;;;;12.32;5.43;;;;;;;;;;6206514;23;20031;-66
2022/06/18 10:20:21;;;;;;;14.27;5.72;;;;;;;;;;6196574;23;20024;-66
2022/06/18 10:22:47;;;;;;;13.88;5.88;;;;;;;;;;6180526;23;20032;-66
2022/06/18 10:25:13;;;;;;;9.63;4.97;;;;;;;;;;6191775;23;20024;-67
2022/06/18 10:27:43;;;;;;;15.65;5.13;;;;;;;;;;6200319;23;20525;-68
2022/06/18 10:30:19;;;;;;;16.10;5.32;;;;;;;;;;6194007;23;20052;-66
2022/06/18 10:32:58;;;;;;;12.10;4.57;;;;;;;;;;6205956;23;20031;-65
2022/06/18 10:35:24;;;;;;;13.02;5.22;;;;;;;;;;6199427;22;20020;-66
2022/06/18 10:37:57;;;;;;;12.55;5.07;;;;;;;;;;6203561;23;20046;-66
2022/06/18 10:40:49;;;;;;;12.15;5.15;;;;;;;;;;6197316;23;20025;-66
2022/06/18 10:43:19;;;;;;;17.25;5.70;;;;;;;;;;6196007;23;20064;-66
2022/06/18 10:45:48;;;;;;;13.07;5.72;;;;;;;;;;6204990;23;20029;-66
2022/06/18 10:48:15;;;;;;;14.95;5.25;;;;;;;;;;6195620;23;20035;-66
2022/06/18 10:50:46;;;;;;;14.95;5.22;;;;;;;;;;6204940;23;20136;-68
2022/06/18 10:53:14;;;;;;;11.35;4.40;;;;;;;;;;6191541;23;20031;-67
2022/06/18 10:55:41;;;;;;;16.30;4.35;;;;;;;;;;6200184;23;20608;-67
2022/06/18 10:58:12;;;;;;;12.45;4.88;;;;;;;;;;6202218;23;20099;-67
2022/06/18 11:00:40;;;;;;;15.82;5.13;;;;;;;;;;6203420;23;20029;-67
2022/06/18 11:03:17;;;;;;;11.80;4.35;;;;;;;;;;6204163;23;20024;-66
2022/06/18 11:05:45;;;;;;;16.17;4.97;;;;;;;;;;6198128;23;20107;-66
2022/06/18 11:08:32;;;;;;;13.23;4.65;;;;;;;;;;6194240;23;20024;-67
2022/06/18 11:11:01;;;;;;;12.63;5.00;;;;;;;;;;6195310;22;20025;-67
2022/06/18 11:13:29;;;;;;;16.40;4.35;;;;;;;;;;6204545;23;20086;-67
2022/06/18 11:16:03;;;;;;;15.65;4.50;;;;;;;;;;6197636;23;20024;-66
2022/06/18 11:18:29;;;;;;;13.23;4.30;;;;;;;;;;6204798;23;20021;-67
2022/06/18 11:21:12;;;;;;;16.52;4.82;;;;;;;;;;6199802;23;20024;-66
2022/06/18 11:23:44;;;;;;;9.70;4.18;;;;;;;;;;6198019;23;20100;-67
2022/06/18 11:26:31;;;;;;;12.00;4.22;;;;;;;;;;6205578;23;20761;-67
2022/06/18 11:29:01;;;;;;;10.70;4.63;;;;;;;;;;6197278;22;20135;-67
2022/06/18 11:31:33;;;;;;;13.73;4.65;;;;;;;;;;6202916;23;20059;-66
2022/06/18 11:34:07;;;;;;;12.68;4.47;;;;;;;;;;6191818;23;20020;-67
2022/06/18 11:36:44;;;;;;;11.13;5.38;;;;;;;;;;6186118;23;20249;-67
2022/06/18 11:39:10;;;;;;;;;;;;;;;;;;6187053;23;20031;-67
2022/06/18 11:41:40;;;;;;;11.60;4.85;;;;;;;;;;6196917;23;19998;-66
2022/06/18 11:44:23;;;;;;;15.75;5.45;;;;;;;;;;6197565;23;20016;-66
2022/06/18 11:46:55;;;;;;;13.45;4.70;;;;;;;;;;6192524;23;20025;-67
2022/06/18 11:49:27;;;;;;;15.95;5.13;;;;;;;;;;6192092;23;20029;-67
2022/06/18 11:52:00;;;;;;;13.57;5.57;;;;;;;;;;6188220;23;20024;-67
2022/06/18 11:54:38;;;;;;;12.75;4.70;;;;;;;;;;6197311;23;20052;-66
2022/06/18 11:57:16;;;;;;;17.38;5.22;;;;;;;;;;6187479;23;20048;-67
2022/06/18 11:59:52;;;;;;;17.98;4.70;;;;;;;;;;6198802;23;20032;-67
2022/06/18 12:02:22;;;;;;;13.20;4.43;;;;;;;;;;6161186;23;20027;-67
2022/06/18 12:04:50;;;;;;;13.02;5.00;;;;;;;;;;6198885;23;20021;-67
2022/06/18 12:07:20;;;;;;;16.55;5.38;;;;;;;;;;6199208;23;20162;-67
2022/06/18 12:09:47;;;;;;;13.38;5.15;;;;;;;;;;6190011;23;20107;-67
2022/06/18 12:12:18;;;;;;;17.90;6.00;;;;;;;;;;6166327;23;20083;-67
2022/06/18 12:14:52;;;;;;;12.10;4.82;;;;;;;;;;6183861;23;20481;-66
2022/06/18 12:17:33;;;;;;;13.60;4.72;;;;;;;;;;6173165;23;20621;-67
2022/06/18 12:20:20;;;;;;;20.40;5.10;;;;;;;;;;6188594;23;20099;-66
2022/06/18 12:23:02;;;;;;;12.88;4.72;;;;;;;;;;6152548;23;20704;-67
2022/06/18 12:25:29;;;;;;;13.45;5.18;;;;;;;;;;6184172;23;20107;-67
2022/06/18 12:28:15;;;;;;;13.57;4.60;;;;;;;;;;6192917;23;20472;-66
2022/06/18 12:30:49;;;;;;;13.98;4.82;;;;;;;;;;6196495;23;20108;-66
2022/06/18 12:33:48;;;;;;;11.80;4.85;;;;;;;;;;6189164;23;20488;-67
2022/06/18 12:36:18;;;;;;;15.85;4.80;;;;;;;;;;6147240;23;20104;-68
2022/06/18 12:39:03;;;;;;;17.67;4.97;;;;;;;;;;6185966;22;20493;-67
2022/06/18 12:41:43;;;;;;;14.40;4.82;;;;;;;;;;6192575;23;20032;-66
2022/06/18 12:44:20;;;;;;;15.85;5.05;;;;;;;;;;6187685;22;20533;-66
2022/06/18 12:46:59;;;;;;;12.40;4.70;;;;;;;;;;6199847;23;20651;-67
2022/06/18 12:49:28;;;;;;;16.58;5.35;;;;;;;;;;6188324;22;20027;-67
2022/06/18 12:52:11;;;;;;;15.40;5.75;;;;;;;;;;6199386;23;20021;-67
2022/06/18 12:54:44;;;;;;;14.93;5.72;;;;;;;;;;6183294;23;20155;-67
2022/06/18 12:57:22;;;;;;;15.20;5.50;;;;;;;;;;6193065;23;20021;-67
2022/06/18 12:59:54;;;;;;;12.85;5.20;;;;;;;;;;6199470;23;20458;-68
2022/06/18 13:02:28;;;;;;;20.77;4.95;;;;;;;;;;6187916;22;20100;-67
2022/06/18 13:05:11;;;;;;;14.35;4.82;;;;;;;;;;6198931;23;20103;-67
2022/06/18 13:07:50;;;;;;;15.15;4.72;;;;;;;;;;6183036;23;20439;-67
2022/06/18 13:10:36;;;;;;;12.20;5.40;;;;;;;;;;6192819;23;20437;-67
2022/06/18 13:13:20;;;;;;;14.27;5.00;;;;;;;;;;6187674;23;20027;-67
2022/06/18 13:15:48;;;;;;;13.35;4.88;;;;;;;;;;6199042;23;20027;-67
2022/06/18 13:18:20;;;;;;;16.23;5.32;;;;;;;;;;6187692;23;20036;-67
2022/06/18 13:20:51;;;;;;;15.43;5.07;;;;;;;;;;6196543;23;20522;-67
2022/06/18 13:29:04;;;;;;;12.38;5.00;;;;;;;;;;6198985;23;20429;-67
2022/06/18 13:31:51;;;;;;;15.60;5.25;;;;;;;;;;6186241;22;20127;-66
2022/06/18 13:34:35;;;;;;;13.30;4.50;;;;;;;;;;6197826;23;20042;-66
2022/06/18 13:37:05;;;;;;;13.55;5.20;;;;;;;;;;6179051;23;20464;-66
2022/06/18 13:39:45;;;;;;;13.98;4.53;;;;;;;;;;6197270;23;20021;-66
2022/06/18 13:42:19;;;;;;;14.52;4.50;;;;;;;;;;6187599;23;20054;-66
2022/06/18 13:44:52;;;;;;;15.90;5.50;;;;;;;;;;6199630;23;20513;-66
2022/06/18 13:47:19;;;;;;;18.05;5.30;;;;;;;;;;6189133;23;20020;-68
2022/06/18 13:49:51;;;;;;;12.27;3.77;;;;;;;;;;6197004;23;20025;-67
2022/06/18 13:52:19;;;;;;;13.40;4.95;;;;;;;;;;6197509;23;20024;-67
2022/06/18 13:54:48;;;;;;;11.52;4.38;;;;;;;;;;6188203;23;20025;-67
2022/06/18 13:57:16;;;;;;;14.48;4.70;;;;;;;;;;6197498;23;20107;-66
2022/06/18 14:00:08;;;;;;;19.02;4.55;;;;;;;;;;6182342;23;20828;-66
2022/06/18 14:02:36;;;;;;;14.50;4.85;;;;;;;;;;6158028;23;20556;-66
2022/06/18 14:05:14;;;;;;;14.60;4.75;;;;;;;;;;6188289;22;20024;-66
2022/06/18 14:07:42;;;;;;;20.10;4.90;;;;;;;;;;6198860;23;20709;-66
2022/06/18 14:10:16;;;;;;;16.00;4.88;;;;;;;;;;6197341;23;20448;-66
2022/06/18 14:12:46;;;;;;;12.48;4.30;;;;;;;;;;6166975;23;20024;-67
2022/06/18 14:15:12;;;;;;;12.57;4.50;;;;;;;;;;6189498;23;20097;-67
2022/06/18 14:17:44;;;;;;;11.30;5.13;;;;;;;;;;6184079;23;20028;-67
2022/06/18 14:20:30;;;;;;;18.20;5.13;;;;;;;;;;6196987;23;20059;-67
2022/06/18 14:23:02;;;;;;;16.00;3.92;;;;;;;;;;6187768;23;20021;-67
2022/06/18 14:25:40;;;;;;;13.60;4.75;;;;;;;;;;6197337;23;20035;-67
2022/06/18 14:28:07;;;;;;;13.55;4.78;;;;;;;;;;6182899;23;20931;-67
2022/06/18 14:30:41;;;;;;;15.52;5.10;;;;;;;;;;6188676;23;20047;-67
2022/06/18 14:33:15;;;;;;;14.93;6.15;;;;;;;;;;6196985;23;20400;-66
2022/06/18 14:35:47;;;;;;;16.33;4.72;;;;;;;;;;6187477;23;20056;-67
2022/06/18 14:38:13;;;;;;;13.63;3.88;;;;;;;;;;6197406;23;20103;-67
2022/06/18 14:43:28;;;;;;;12.60;4.68;;;;;;;;;;6190621;23;20367;-66
2022/06/18 14:46:06;;;;;;;17.90;5.30;;;;;;;;;;6192291;22;20060;-67
2022/06/18 14:48:39;;;;;;;14.32;4.85;;;;;;;;;;6199476;23;20454;-67
2022/06/18 14:51:12;;;;;;;9.88;4.40;;;;;;;;;;6192967;23;20485;-67
2022/06/18 14:53:57;;;;;;;13.10;4.47;;;;;;;;;;6197893;23;20021;-67
2022/06/18 14:56:42;;;;;;;13.45;4.38;;;;;;;;;;6191003;23;20020;-67
2022/06/18 14:59:18;;;;;;;10.60;4.40;;;;;;;;;;6182537;23;20021;-67
2022/06/18 15:01:59;;;;;;;10.02;3.92;;;;;;;;;;6196967;23;20107;-67
2022/06/18 15:04:28;;;;;;;11.40;4.00;;;;;;;;;;6187562;23;20909;-67
2022/06/18 15:06:54;;;;;;;7.53;3.33;;;;;;;;;;6198735;23;20265;-67
2022/06/18 15:09:25;;;;;;;10.87;3.60;;;;;;;;;;6181789;23;20024;-67
2022/06/18 15:11:53;;;;;;;11.45;3.72;;;;;;;;;;6192172;23;20506;-67
2022/06/18 15:14:21;;;;;;;10.82;3.80;;;;;;;;;;6191974;22;20095;-67